createdAt,value
2023-03-06T00:01:00.689Z,7.37
2023-03-06T00:03:30.019Z,8.08
2023-03-06T00:06:00.357Z,7.85
2023-03-06T00:08:30.431Z,8.25
2023-03-06T00:10:59.762Z,8.48
2023-03-06T00:13:30.731Z,8.70
2023-03-06T00:16:01.561Z,8.63
2023-03-06T00:18:30.924Z,9.15
2023-03-06T00:21:00.189Z,9.70
2023-03-06T00:23:29.461Z,9.35
2023-03-06T00:25:58.756Z,8.78
2023-03-06T00:28:29.593Z,9.60
2023-03-06T00:30:58.860Z,8.75
2023-03-06T00:33:28.062Z,9.55
2023-03-06T00:35:58.048Z,9.80
2023-03-06T00:38:28.598Z,9.38
2023-03-06T00:40:58.301Z,9.08
2023-03-06T00:43:27.508Z,9.93
2023-03-06T00:45:57.053Z,10.32
2023-03-06T00:48:26.392Z,9.90
2023-03-06T00:50:55.932Z,10.65
2023-03-06T00:53:25.311Z,9.98
2023-03-06T00:55:55.055Z,10.30
2023-03-06T00:58:24.291Z,9.85
2023-03-06T01:00:53.833Z,9.50
2023-03-06T01:03:24.211Z,9.75
2023-03-06T01:05:54.334Z,9.53
2023-03-06T01:08:23.540Z,9.63
2023-03-06T01:10:52.861Z,9.25
2023-03-06T01:13:22.104Z,9.20
2023-03-06T01:15:53.090Z,8.95
2023-03-06T01:18:24.011Z,9.03
2023-03-06T01:20:53.496Z,8.70
2023-03-06T01:23:22.970Z,8.78
2023-03-06T01:25:52.311Z,8.73
2023-03-06T01:28:22.173Z,9.68
2023-03-06T01:30:51.761Z,9.10
2023-03-06T01:33:21.542Z,8.50
2023-03-06T01:35:51.501Z,9.30
2023-03-06T01:38:20.920Z,8.93
2023-03-06T01:40:50.167Z,8.73
2023-03-06T01:43:31.320Z,9.25
2023-03-06T01:46:18.922Z,9.05
2023-03-06T01:48:49.269Z,9.33
2023-03-06T01:51:18.666Z,9.15
2023-03-06T01:53:48.726Z,9.35
2023-03-06T01:56:18.167Z,10.03
2023-03-06T01:58:49.227Z,10.55
2023-03-06T02:01:19.428Z,10.58
2023-03-06T02:03:50.007Z,10.23
2023-03-06T02:06:22.015Z,10.28
2023-03-06T02:08:52.276Z,11.15
2023-03-06T02:11:24.018Z,11.30
2023-03-06T02:13:55.214Z,10.38
2023-03-06T02:16:26.987Z,10.63
2023-03-06T02:18:56.914Z,10.28
2023-03-06T02:21:35.023Z,10.95
2023-03-06T02:24:37.910Z,10.58
2023-03-06T02:27:09.278Z,9.75
2023-03-06T02:29:39.618Z,10.43
2023-03-06T02:32:09.079Z,9.95
2023-03-06T02:34:41.624Z,9.43
2023-03-06T02:37:12.241Z,9.75
2023-03-06T02:39:44.913Z,10.50
2023-03-06T02:42:23.715Z,10.30
2023-03-06T02:44:55.605Z,10.40
2023-03-06T02:47:25.241Z,10.50
2023-03-06T02:49:54.618Z,9.80
2023-03-06T02:52:23.822Z,9.38
2023-03-06T02:54:53.111Z,9.43
2023-03-06T02:57:22.404Z,9.38
2023-03-06T02:59:51.733Z,9.35
2023-03-06T03:02:21.019Z,9.05
2023-03-06T03:04:50.511Z,8.45
2023-03-06T03:07:20.582Z,9.53
2023-03-06T03:09:50.079Z,9.55
2023-03-06T03:12:19.737Z,8.60
2023-03-06T03:14:50.236Z,9.73
2023-03-06T03:17:19.744Z,9.68
2023-03-06T03:19:49.021Z,8.50
2023-03-06T03:22:19.866Z,9.33
2023-03-06T03:24:49.505Z,7.95
2023-03-06T03:27:19.013Z,8.83
2023-03-06T03:29:48.550Z,8.75
2023-03-06T03:32:18.537Z,9.18
2023-03-06T03:34:48.331Z,9.20
2023-03-06T03:37:19.687Z,9.38
2023-03-06T03:39:49.131Z,9.05
2023-03-06T03:42:18.531Z,9.08
2023-03-06T03:44:47.889Z,8.58
2023-03-06T03:47:17.899Z,8.63
2023-03-06T03:49:47.632Z,9.75
2023-03-06T03:52:17.334Z,10.25
2023-03-06T03:54:46.730Z,9.60
2023-03-06T03:57:16.319Z,10.65
2023-03-06T03:59:47.339Z,10.35
2023-03-06T04:02:27.155Z,10.18
2023-03-06T04:05:01.244Z,10.58
2023-03-06T04:07:30.802Z,11.33
2023-03-06T04:10:00.159Z,9.95
2023-03-06T04:12:30.368Z,10.85
2023-03-06T04:15:00.018Z,10.95
2023-03-06T04:17:29.734Z,11.38
2023-03-06T04:19:59.838Z,11.25
2023-03-06T04:22:29.551Z,11.80
2023-03-06T04:24:59.062Z,11.55
2023-03-06T04:27:28.651Z,11.22
2023-03-06T04:29:58.229Z,11.75
2023-03-06T04:32:27.773Z,11.00
2023-03-06T04:34:58.230Z,11.22
2023-03-06T04:37:28.810Z,11.90
2023-03-06T04:39:59.045Z,11.90
2023-03-06T04:42:28.284Z,11.78
2023-03-06T04:44:57.660Z,11.55
2023-03-06T04:47:26.897Z,12.07
2023-03-06T04:49:56.500Z,11.83
2023-03-06T04:52:25.738Z,13.08
2023-03-06T04:54:55.273Z,12.63
2023-03-06T04:57:24.800Z,13.32
2023-03-06T04:59:54.187Z,11.90
2023-03-06T05:02:24.802Z,12.95
2023-03-06T05:04:54.080Z,13.95
2023-03-06T05:07:23.340Z,13.68
2023-03-06T05:09:52.662Z,12.95
2023-03-06T05:12:22.090Z,12.88
2023-03-06T05:14:51.512Z,13.10
2023-03-06T05:17:21.243Z,13.32
2023-03-06T05:19:50.499Z,13.70
2023-03-06T05:22:20.051Z,13.43
2023-03-06T05:24:49.362Z,12.53
2023-03-06T05:27:19.162Z,12.70
2023-03-06T05:29:48.394Z,12.75
2023-03-06T05:32:18.626Z,12.90
2023-03-06T05:34:48.482Z,11.90
2023-03-06T05:37:17.790Z,13.58
2023-03-06T05:39:47.196Z,13.90
2023-03-06T05:42:16.480Z,12.73
2023-03-06T05:44:46.351Z,13.18
2023-03-06T05:47:15.919Z,13.58
2023-03-06T05:49:45.385Z,13.45
2023-03-06T05:52:16.629Z,14.23
2023-03-06T05:54:45.864Z,12.85
2023-03-06T05:57:15.108Z,14.40
2023-03-06T05:59:46.311Z,14.95
2023-03-06T06:02:16.206Z,13.32
2023-03-06T06:04:45.692Z,15.05
2023-03-06T06:07:16.575Z,13.95
2023-03-06T06:09:46.332Z,14.38
2023-03-06T06:12:15.918Z,14.28
2023-03-06T06:14:45.373Z,15.78
2023-03-06T06:17:14.785Z,14.33
2023-03-06T06:19:44.296Z,15.40
2023-03-06T06:22:13.658Z,14.73
2023-03-06T06:24:42.961Z,14.45
2023-03-06T06:27:12.227Z,14.75
2023-03-06T06:29:41.481Z,14.07
2023-03-06T06:32:11.026Z,14.80
2023-03-06T06:34:40.513Z,15.60
2023-03-06T06:37:09.922Z,16.02
2023-03-06T06:39:39.539Z,16.15
2023-03-06T06:42:29.901Z,16.52
2023-03-06T06:47:22.351Z,16.50
2023-03-06T06:49:41.061Z,17.23
2023-03-06T06:52:11.691Z,16.10
2023-03-06T06:54:40.922Z,17.17
2023-03-06T06:57:11.627Z,17.80
2023-03-06T06:59:41.287Z,17.60
2023-03-06T07:02:14.023Z,16.12
2023-03-06T07:05:02.022Z,16.15
2023-03-06T07:07:15.486Z,16.60
2023-03-06T07:09:45.020Z,16.00
2023-03-06T07:12:14.475Z,14.75
2023-03-06T07:14:43.759Z,15.90
2023-03-06T07:17:13.377Z,15.30
2023-03-06T07:19:42.616Z,16.97
2023-03-06T07:22:12.077Z,15.70
2023-03-06T07:24:41.672Z,14.55
2023-03-06T07:27:11.003Z,16.60
2023-03-06T07:29:40.365Z,15.83
2023-03-06T07:32:13.949Z,15.40
2023-03-06T07:34:45.134Z,13.35
2023-03-06T07:37:17.720Z,15.00
2023-03-06T07:39:48.206Z,14.25
2023-03-06T07:42:18.050Z,14.70
2023-03-06T07:44:48.994Z,14.05
2023-03-06T07:47:19.079Z,13.72
2023-03-06T07:49:49.638Z,14.63
2023-03-06T07:52:19.311Z,14.98
2023-03-06T07:54:49.472Z,15.68
2023-03-06T07:57:19.855Z,16.35
2023-03-06T07:59:49.363Z,15.58
2023-03-06T08:02:18.829Z,16.80
2023-03-06T08:04:53.420Z,18.07
2023-03-06T08:07:23.209Z,17.73
2023-03-06T08:09:52.701Z,17.92
2023-03-06T08:12:22.310Z,18.07
2023-03-06T08:14:51.528Z,18.60
2023-03-06T08:17:21.077Z,18.95
2023-03-06T08:19:50.313Z,20.27
2023-03-06T08:22:20.013Z,19.45
2023-03-06T08:24:49.212Z,18.92
2023-03-06T08:27:18.486Z,17.98
2023-03-06T08:29:47.684Z,18.17
2023-03-06T08:32:17.148Z,18.10
2023-03-06T08:34:46.599Z,17.40
2023-03-06T08:37:16.036Z,17.27
2023-03-06T08:39:45.669Z,16.05
2023-03-06T08:42:16.080Z,16.02
2023-03-06T08:44:45.460Z,15.45
2023-03-06T08:47:15.008Z,15.90
2023-03-06T08:49:44.309Z,15.43
2023-03-06T08:52:13.674Z,15.72
2023-03-06T08:54:42.907Z,14.13
2023-03-06T08:57:12.629Z,14.38
2023-03-06T08:59:42.222Z,14.18
2023-03-06T09:02:15.043Z,14.78
2023-03-06T09:04:44.349Z,15.58
2023-03-06T09:07:13.793Z,15.08
2023-03-06T09:09:43.325Z,14.73
2023-03-06T09:12:12.785Z,14.93
2023-03-06T09:14:42.120Z,14.05
2023-03-06T09:17:11.636Z,13.48
2023-03-06T09:19:41.264Z,11.65
2023-03-06T09:22:10.507Z,12.20
2023-03-06T09:24:39.913Z,13.35
2023-03-06T09:27:09.657Z,11.90
2023-03-06T09:29:39.088Z,11.80
2023-03-06T09:32:11.150Z,11.40
2023-03-06T09:34:40.063Z,12.50
2023-03-06T09:37:09.323Z,12.93
2023-03-06T09:39:38.686Z,12.80
2023-03-06T09:42:10.859Z,11.95
2023-03-06T09:44:41.388Z,8.60
2023-03-06T09:47:28.861Z,8.95
2023-03-06T09:50:16.076Z,9.45
2023-03-06T09:52:47.650Z,8.55
2023-03-06T09:55:21.996Z,9.25
2023-03-06T09:58:09.212Z,8.58
2023-03-06T10:00:56.922Z,9.93
2023-03-06T10:03:51.540Z,10.93
2023-03-06T10:06:31.809Z,9.53
2023-03-06T10:09:06.594Z,8.43
2023-03-06T10:11:41.590Z,6.90
2023-03-06T10:14:23.005Z,6.97
2023-03-06T10:16:52.343Z,7.05
2023-03-06T10:19:22.645Z,7.17
2023-03-06T10:22:01.285Z,7.03
2023-03-06T10:24:42.593Z,6.80
2023-03-06T10:27:17.256Z,6.90
2023-03-06T10:30:14.068Z,6.35
2023-03-06T10:32:49.759Z,4.60
2023-03-06T10:35:22.072Z,4.40
2023-03-06T10:37:51.321Z,4.28
2023-03-06T10:40:24.776Z,4.08
2023-03-06T10:43:09.517Z,3.95
2023-03-06T10:45:25.029Z,4.67
2023-03-06T10:47:57.415Z,4.62
2023-03-06T10:50:30.616Z,5.80
2023-03-06T10:53:05.646Z,5.85
2023-03-06T10:55:36.717Z,6.42
2023-03-06T10:58:28.908Z,6.33
2023-03-06T11:01:10.164Z,7.50
2023-03-06T11:03:39.746Z,8.43
2023-03-06T11:06:17.287Z,9.40
2023-03-06T11:08:46.717Z,9.63
2023-03-06T11:11:35.041Z,8.95
2023-03-06T11:13:58.225Z,8.98
2023-03-06T11:16:31.284Z,8.33
2023-03-06T11:19:04.049Z,8.50
2023-03-06T11:21:36.124Z,7.30
2023-03-06T11:24:08.592Z,7.45
2023-03-06T11:26:47.244Z,7.58
2023-03-06T11:29:40.504Z,8.18
2023-03-06T11:32:19.548Z,7.83
2023-03-06T11:35:04.875Z,7.70
2023-03-06T11:37:40.419Z,7.67
2023-03-06T11:40:33.553Z,7.53
2023-03-06T11:43:09.127Z,7.75
2023-03-06T11:45:41.869Z,6.72
2023-03-06T11:48:17.660Z,6.42
2023-03-06T11:50:56.136Z,7.10
2023-03-06T11:53:34.168Z,7.55
2023-03-06T11:56:23.153Z,7.28
2023-03-06T11:59:28.865Z,6.60
2023-03-06T12:02:03.908Z,6.97
2023-03-06T12:04:53.317Z,8.00
2023-03-06T12:07:36.392Z,8.08
2023-03-06T12:10:23.894Z,7.53
2023-03-06T12:13:08.305Z,7.55
2023-03-06T12:15:57.776Z,7.50
2023-03-06T12:18:44.253Z,9.85
2023-03-06T12:21:33.853Z,8.55
2023-03-06T12:24:12.320Z,6.70
2023-03-06T12:27:04.844Z,7.97
2023-03-06T12:29:42.775Z,8.00
2023-03-06T12:32:27.517Z,7.30
2023-03-06T12:35:16.854Z,10.05
2023-03-06T12:37:58.567Z,6.72
2023-03-06T12:41:02.948Z,6.60
2023-03-06T12:43:47.295Z,9.20
2023-03-06T12:46:24.470Z,8.43
2023-03-06T12:49:05.069Z,7.92
2023-03-06T12:51:34.741Z,10.78
2023-03-06T12:54:04.479Z,8.88
2023-03-06T12:56:34.457Z,7.20
2023-03-06T12:59:03.829Z,5.92
2023-03-06T13:02:00.079Z,7.78
2023-03-06T13:04:35.589Z,10.25
2023-03-06T13:07:16.955Z,9.73
2023-03-06T13:10:07.588Z,9.15
2023-03-06T13:12:53.209Z,8.40
2023-03-06T13:15:47.073Z,10.35
2023-03-06T13:18:28.450Z,9.88
2023-03-06T13:20:58.181Z,9.30
2023-03-06T13:23:45.639Z,9.20
2023-03-06T13:26:27.115Z,9.45
2023-03-06T13:28:58.355Z,9.60
2023-03-06T13:31:36.632Z,9.05
2023-03-06T13:34:07.152Z,10.23
2023-03-06T13:36:39.704Z,9.55
2023-03-06T13:39:12.444Z,9.08
2023-03-06T13:41:44.897Z,7.55
2023-03-06T13:44:30.773Z,6.85
2023-03-06T13:47:08.428Z,8.00
2023-03-06T13:49:37.844Z,7.28
2023-03-06T13:52:25.076Z,6.12
2023-03-06T13:55:13.883Z,6.92
2023-03-06T13:57:46.256Z,6.50
2023-03-06T14:00:25.033Z,6.33
2023-03-06T14:03:29.331Z,6.62
2023-03-06T14:05:59.081Z,6.97
2023-03-06T14:08:32.872Z,7.08
2023-03-06T14:11:20.706Z,6.67
2023-03-06T14:13:57.974Z,7.67
2023-03-06T14:16:40.515Z,8.33
2023-03-06T14:19:01.450Z,9.90
2023-03-06T14:21:40.048Z,8.18
2023-03-06T14:24:17.891Z,9.30
2023-03-06T14:26:53.314Z,10.00
2023-03-06T14:29:25.452Z,8.98
2023-03-06T14:31:57.439Z,10.05
2023-03-06T14:34:32.067Z,9.78
2023-03-06T14:37:05.487Z,10.45
2023-03-06T14:39:38.151Z,10.05
2023-03-06T14:42:10.802Z,9.63
2023-03-06T14:44:40.041Z,10.88
2023-03-06T14:47:28.952Z,11.15
2023-03-06T14:50:21.536Z,11.83
2023-03-06T14:52:57.026Z,10.18
2023-03-06T14:55:28.730Z,10.50
2023-03-06T14:58:06.471Z,10.53
2023-03-06T15:00:39.264Z,10.13
2023-03-06T15:03:11.788Z,12.37
2023-03-06T15:08:09.818Z,12.47
2023-03-06T15:10:39.266Z,12.58
2023-03-06T15:13:11.519Z,13.08
2023-03-06T15:15:40.770Z,13.32
2023-03-06T15:18:28.872Z,13.05
2023-03-06T15:21:18.640Z,13.03
2023-03-06T15:23:49.995Z,13.40
2023-03-06T15:26:34.989Z,14.87
2023-03-06T15:29:13.905Z,13.93
2023-03-06T15:31:47.282Z,14.83
2023-03-06T15:34:26.403Z,14.07
2023-03-06T15:36:57.717Z,16.00
2023-03-06T15:39:30.654Z,16.20
2023-03-06T15:42:06.019Z,15.32
2023-03-06T15:44:35.588Z,16.70
2023-03-06T15:47:09.022Z,17.12
2023-03-06T15:49:38.563Z,15.93
2023-03-06T15:52:08.362Z,17.37
2023-03-06T15:54:37.936Z,17.23
2023-03-06T15:57:08.789Z,16.45
2023-03-06T15:59:44.019Z,17.05
2023-03-06T16:02:18.704Z,17.07
2023-03-06T16:04:48.190Z,16.35
2023-03-06T16:07:17.938Z,17.07
2023-03-06T16:09:47.765Z,17.75
2023-03-06T16:12:19.458Z,16.80
2023-03-06T16:14:49.594Z,17.50
2023-03-06T16:17:19.433Z,15.23
2023-03-06T16:19:48.940Z,14.20
2023-03-06T16:22:18.812Z,13.60
2023-03-06T16:24:48.292Z,13.45
2023-03-06T16:27:20.037Z,13.25
2023-03-06T16:29:49.629Z,12.78
2023-03-06T16:32:19.239Z,12.73
2023-03-06T16:34:48.616Z,12.88
2023-03-06T16:37:18.062Z,13.80
2023-03-06T16:39:47.436Z,12.85
2023-03-06T16:42:17.705Z,13.62
2023-03-06T16:44:46.941Z,13.72
2023-03-06T16:47:16.250Z,13.35
2023-03-06T16:49:45.601Z,13.80
2023-03-06T16:52:15.355Z,14.23
2023-03-06T16:54:44.898Z,14.10
2023-03-06T16:57:15.955Z,14.60
2023-03-06T16:59:45.213Z,15.98
2023-03-06T17:02:14.631Z,14.43
2023-03-06T17:04:43.838Z,14.85
2023-03-06T17:07:13.452Z,16.40
2023-03-06T17:09:43.270Z,15.80
2023-03-06T17:12:12.860Z,15.15
2023-03-06T17:14:42.350Z,14.83
2023-03-06T17:17:11.863Z,13.10
2023-03-06T17:19:41.253Z,13.80
2023-03-06T17:22:10.642Z,12.40
2023-03-06T17:24:39.893Z,13.10
2023-03-06T17:27:09.478Z,12.93
2023-03-06T17:29:39.072Z,13.45
2023-03-06T17:32:08.726Z,13.28
2023-03-06T17:34:38.463Z,13.83
2023-03-06T17:37:08.353Z,13.70
2023-03-06T17:39:39.641Z,13.60
2023-03-06T17:42:09.333Z,14.35
2023-03-06T17:44:39.418Z,13.03
2023-03-06T17:47:08.895Z,14.55
2023-03-06T17:49:39.839Z,14.65
2023-03-06T17:52:09.392Z,14.73
2023-03-06T17:54:38.681Z,14.43
2023-03-06T17:57:07.933Z,15.32
2023-03-06T17:59:37.352Z,15.63
2023-03-06T18:02:07.051Z,15.53
2023-03-06T18:04:36.345Z,14.87
2023-03-06T18:07:05.999Z,15.20
2023-03-06T18:12:42.429Z,15.25
2023-03-06T18:15:12.313Z,15.90
2023-03-06T18:17:41.752Z,16.25
2023-03-06T18:20:12.117Z,15.90
2023-03-06T18:22:41.563Z,17.02
2023-03-06T18:25:11.303Z,17.70
2023-03-06T18:27:40.674Z,18.40
2023-03-06T18:30:11.138Z,17.77
2023-03-06T18:32:40.592Z,17.50
2023-03-06T18:35:10.589Z,17.95
2023-03-06T18:37:39.872Z,18.62
2023-03-06T18:40:10.481Z,17.65
2023-03-06T18:42:39.834Z,18.15
2023-03-06T18:45:09.949Z,16.97
2023-03-06T18:47:39.764Z,17.23
2023-03-06T18:50:11.156Z,18.45
2023-03-06T18:52:40.472Z,17.60
2023-03-06T18:55:10.909Z,18.52
2023-03-06T18:57:40.871Z,18.32
2023-03-06T19:00:12.663Z,19.00
2023-03-06T19:02:42.280Z,18.98
2023-03-06T19:05:11.929Z,18.07
2023-03-06T19:07:41.540Z,18.50
2023-03-06T19:10:13.335Z,18.42
2023-03-06T19:12:42.790Z,19.62
2023-03-06T19:15:12.287Z,20.08
2023-03-06T19:17:41.940Z,20.00
2023-03-06T19:20:12.670Z,19.42
2023-03-06T19:22:42.283Z,19.60
2023-03-06T19:25:11.946Z,20.20
2023-03-06T19:27:42.880Z,19.62
2023-03-06T19:30:13.546Z,20.68
2023-03-06T19:32:47.555Z,21.12
2023-03-06T19:35:17.110Z,21.02
2023-03-06T19:37:46.672Z,18.77
2023-03-06T19:40:16.740Z,19.67
2023-03-06T19:42:46.159Z,21.48
2023-03-06T19:45:15.954Z,20.32
2023-03-06T19:47:45.226Z,19.77
2023-03-06T19:50:14.587Z,20.82
2023-03-06T19:52:44.477Z,19.65
2023-03-06T19:55:13.786Z,20.62
2023-03-06T19:57:43.511Z,20.30
2023-03-06T20:00:14.308Z,21.05
2023-03-06T20:02:44.079Z,22.15
2023-03-06T20:05:13.515Z,21.93
2023-03-06T20:07:42.995Z,20.40
2023-03-06T20:10:12.814Z,19.82
2023-03-06T20:12:42.292Z,19.60
2023-03-06T20:15:12.460Z,19.65
2023-03-06T20:17:41.684Z,20.17
2023-03-06T20:20:12.076Z,20.02
2023-03-06T20:22:41.403Z,20.57
2023-03-06T20:25:11.281Z,19.67
2023-03-06T20:27:40.687Z,19.07
2023-03-06T20:30:11.049Z,17.62
2023-03-06T20:32:40.361Z,18.20
2023-03-06T20:35:09.968Z,16.25
2023-03-06T20:37:41.183Z,15.45
2023-03-06T20:40:11.791Z,14.55
2023-03-06T20:42:41.153Z,12.95
2023-03-06T20:45:11.022Z,13.62
2023-03-06T20:47:42.008Z,13.60
2023-03-06T20:50:12.164Z,12.78
2023-03-06T20:52:41.660Z,13.43
2023-03-06T20:55:11.270Z,12.95
2023-03-06T20:57:40.570Z,13.65
2023-03-06T21:00:11.382Z,12.82
2023-03-06T21:02:40.647Z,11.53
2023-03-06T21:05:10.622Z,10.13
2023-03-06T21:07:39.878Z,8.78
2023-03-06T21:10:10.619Z,8.70
2023-03-06T21:12:41.508Z,8.58
2023-03-06T21:15:12.987Z,7.87
2023-03-06T21:17:42.300Z,7.05
2023-03-06T21:20:12.509Z,8.20
2023-03-06T21:22:41.786Z,7.33
2023-03-06T21:25:13.137Z,8.33
2023-03-06T21:27:42.439Z,7.35
2023-03-06T21:30:13.163Z,7.33
2023-03-06T21:32:42.576Z,7.15
2023-03-06T21:35:12.214Z,7.53
2023-03-06T21:37:41.479Z,7.35
2023-03-06T21:40:11.913Z,7.15
2023-03-06T21:42:42.050Z,6.25
2023-03-06T21:45:12.429Z,6.72
2023-03-06T21:47:41.742Z,6.50
2023-03-06T21:50:12.275Z,5.70
2023-03-06T21:52:41.776Z,6.12
2023-03-06T21:55:11.485Z,5.83
2023-03-06T21:57:41.665Z,6.58
2023-03-06T22:00:13.271Z,6.60
2023-03-06T22:02:45.113Z,6.90
2023-03-06T22:05:17.014Z,8.80
2023-03-06T22:07:46.671Z,7.87
2023-03-06T22:10:18.840Z,8.35
2023-03-06T22:12:52.894Z,8.85
2023-03-06T22:15:24.786Z,10.30
2023-03-06T22:17:55.304Z,8.65
2023-03-06T22:20:30.267Z,9.35
2023-03-06T22:23:00.252Z,9.93
2023-03-06T22:25:31.813Z,10.13
2023-03-06T22:28:06.194Z,9.98
2023-03-06T22:30:35.511Z,9.88
2023-03-06T22:33:04.871Z,9.43
2023-03-06T22:35:34.317Z,9.38
2023-03-06T22:38:04.633Z,8.23
2023-03-06T22:40:34.494Z,9.33
2023-03-06T22:43:04.005Z,9.13
2023-03-06T22:45:35.255Z,8.98
2023-03-06T22:48:11.110Z,9.15
2023-03-06T22:50:36.821Z,8.15
2023-03-06T22:53:06.072Z,7.78
2023-03-06T22:55:38.054Z,7.83
2023-03-06T22:58:07.806Z,6.62
2023-03-06T23:00:37.058Z,7.00
2023-03-06T23:03:07.004Z,6.87
2023-03-06T23:05:37.929Z,6.83
2023-03-06T23:08:07.274Z,6.33
2023-03-06T23:10:40.213Z,7.10
2023-03-06T23:13:27.647Z,6.42
2023-03-06T23:16:15.049Z,6.42
2023-03-06T23:19:03.134Z,6.30
2023-03-06T23:21:50.362Z,5.65
2023-03-06T23:24:38.164Z,5.78
2023-03-06T23:27:07.559Z,5.50
2023-03-06T23:29:36.919Z,5.08
2023-03-06T23:32:07.459Z,4.47
2023-03-06T23:34:37.260Z,4.42
2023-03-06T23:37:07.348Z,4.22
2023-03-06T23:39:37.281Z,5.87
2023-03-06T23:42:06.942Z,4.83
2023-03-06T23:44:36.566Z,4.10
2023-03-06T23:47:05.911Z,3.77
2023-03-06T23:49:35.687Z,5.50
2023-03-06T23:52:05.054Z,3.92
2023-03-06T23:54:35.751Z,4.15
2023-03-06T23:57:05.163Z,4.65
2023-03-06T23:59:34.829Z,4.08
